This is the latest recevied weather packets stored in our database for station/object EA2RCU-15. If no packets are shown the sender has not sent any weather packets the latest 10 day(s).
| Time | Temp. | Humidity | Pressure | Rain* | Wind** | Luminosity | Snow |
|---|---|---|---|---|---|---|---|
| 1787848504 | 23.89° C | 24% | 996 hPa | 0 mm | - | - | - |
| 1787848204 | 24.44° C | 23% | 996 hPa | 0 mm | - | - | - |
| 1787847904 | 25° C | 22% | 996 hPa | 0 mm | - | - | - |
| 1787847604 | 25° C | 21% | 996 hPa | 0 mm | - | - | - |
| 1787847304 | 25.56° C | 21% | 996 hPa | 0 mm | - | - | - |
| 1787847004 | 26.11° C | 21% | 995 hPa | 0 mm | - | - | - |
| 1787846704 | 26.67° C | 20% | 995 hPa | 0 mm | - | - | - |
| 1787846404 | 27.78° C | 20% | 995 hPa | 0 mm | - | - | - |
| 1787846104 | 27.22° C | 20% | 995 hPa | 0 mm | - | - | - |
| 1787845805 | 27.78° C | 19% | 995 hPa | 0 mm | - | - | - |
| 1787845504 | 30.56° C | 18% | 995 hPa | 0 mm | - | - | - |
| 1787845204 | 27.78° C | 19% | 1050 hPa | 0 mm | - | - | - |
| 1787844911 | 27.78° C | 19% | 1050 hPa | 0 mm | - | - | - |
| 1787844605 | 30.56° C | 16% | 1029.5 hPa | 0 mm | - | - | - |
| 1787844304 | 29.44° C | 16% | 994 hPa | 0 mm | - | - | - |
| 1787844004 | 30.56° C | 16% | 994 hPa | 0 mm | - | - | - |
| 1787843704 | 28.33° C | 16% | 994 hPa | 0 mm | - | - | - |
| 1787843404 | 32.22° C | 12% | 994 hPa | 0 mm | - | - | - |
| 1787843105 | 33.33° C | 12% | 994 hPa | 0 mm | - | - | - |
| 1787842804 | 29.44° C | 13% | 994 hPa | 0 mm | - | - | - |
| 1787842504 | 29.44° C | 13% | 994 hPa | 0 mm | - | - | - |
| 1787842204 | 29.44° C | 13% | 994 hPa | 0 mm | - | - | - |
| 1787841904 | 29.44° C | 15% | 994 hPa | 0 mm | - | - | - |
| 1787841604 | 29.44° C | 13% | 994 hPa | 0 mm | - | - | - |
| 1787841304 | 29.44° C | 14% | 994 hPa | 0 mm | - | - | - |
* Rain latest hour (hover to see other rain measurements)
** Current wind speed in m/s (hover to see current wind gust speed)